WetterOnline ( http://www.wetteronline.de )

Wetter aktuell Ruhpolding

Aktuelles Wetter: Salzburg Flughafen (450m)

6-stündlich | Neueste Meldungen
Ortszeit Temperatur Wetter
Di, 16.01. 13:00 9.2° C leichte Schauer
Di, 16.01. 7:00 3.5° C bewölkt
Di, 16.01. 1:00 2.8° C bewölkt
Mo, 15.01. 19:00 0.6° C wolkig
Mo, 15.01. 13:00 2.3° C bewölkt
Mo, 15.01. 7:00 -0.5° C bedeckt
Mo, 15.01. 1:00 -0.1° C bewölkt
So, 14.01. 19:00 0.4° C bedeckt
Ortszeit Temperatur Wetter
Di, 16.01. 14:20 6° C leichte Schauer
Di, 16.01. 14:00 6.4° C leichte Schauer
Di, 16.01. 13:50 6° C leichte Schauer
Di, 16.01. 13:20 6° C bewölkt
Di, 16.01. 13:00 9.2° C leichte Schauer
Di, 16.01. 12:50 9° C leichte Schauer
Di, 16.01. 12:20 7° C bewölkt
Di, 16.01. 12:00 7.5° C wolkig
Di, 16.01. 11:20 6° C bewölkt
Di, 16.01. 11:00 5.8° C bewölkt
Ortszeit Relative Feuchte Sichtweite
Di, 16.01. 13:00 57% 40 km
Di, 16.01. 7:00 71% 50 km
Di, 16.01. 1:00 60% 30 km
Mo, 15.01. 19:00 86% 14 km
Mo, 15.01. 13:00 76% 22 km
Mo, 15.01. 7:00 86% 16 km
Mo, 15.01. 1:00 94% 7 km
So, 14.01. 19:00 91% 8 km
Ortszeit Relative Feuchte Sichtweite
Di, 16.01. 14:20 81% >10 km
Di, 16.01. 14:00 78% 30 km
Di, 16.01. 13:50 81% >10 km
Di, 16.01. 13:20 81% >10 km
Di, 16.01. 13:00 57% 40 km
Di, 16.01. 12:50 57% >10 km
Di, 16.01. 12:20 57% >10 km
Di, 16.01. 12:00 59% 30 km
Di, 16.01. 11:20 61% >10 km
Di, 16.01. 11:00 61% 45 km
Ortszeit Niederschlagsmenge Niederschlagsart
Di, 16.01. 13:00 0.1 l/m2 in 6 Std. -
Di, 16.01. 7:00 0.5 l/m2 in 12 Std. -
Di, 16.01. 1:00 0.1 l/m2 in 6 Std. -
Mo, 15.01. 19:00 0.1 l/m2 in 12 Std. -
Mo, 15.01. 13:00 0.1 l/m2 in 6 Std. -
Mo, 15.01. 7:00 0.6 l/m2 in 12 Std. -
Mo, 15.01. 1:00 0.5 l/m2 in 6 Std. -
So, 14.01. 19:00 0.1 l/m2 in 12 Std. -
Ortszeit Niederschlagsmenge Niederschlagsart
Di, 16.01. 14:20 keine Meldung -
Di, 16.01. 14:00 0.2 l/m2 in 1 Std. -
Di, 16.01. 13:50 keine Meldung -
Di, 16.01. 13:20 keine Meldung -
Di, 16.01. 13:00 0.1 l/m2 in 1 Std. -
Di, 16.01. 12:50 keine Meldung -
Di, 16.01. 12:20 keine Meldung -
Di, 16.01. 12:00 0.1 l/m2 in 1 Std. -
Di, 16.01. 11:20 keine Meldung -
Di, 16.01. 11:00 0.0 l/m2 in 1 Std. -
Ortszeit Stärke Spitze Richtung
km/h Bft. km/h Grad Sektor
Di, 16.01. 13:00 32 5 58 260° W
Di, 16.01. 7:00 18 3 - 170° S
Di, 16.01. 1:00 14 3 - 130° SO
Mo, 15.01. 19:00 11 2 - 160° S
Mo, 15.01. 13:00 11 2 - - -
Mo, 15.01. 7:00 4 1 - - -
Mo, 15.01. 1:00 4 1 - - -
So, 14.01. 19:00 4 1 - - -
Ortszeit Stärke Spitze Richtung
km/h Bft. km/h Grad Sektor
Di, 16.01. 14:20 15 3 - 220° SW
Di, 16.01. 14:00 18 3 58 220° SW
Di, 16.01. 13:50 19 3 - 220° SW
Di, 16.01. 13:20 22 4 - 210° SW
Di, 16.01. 13:00 32 5 58 260° W
Di, 16.01. 12:50 31 5 57 260° W
Di, 16.01. 12:20 17 3 - 160° S
Di, 16.01. 12:00 14 3 - 160° S
Di, 16.01. 11:20 15 3 - 150° SO
Di, 16.01. 11:00 22 4 - 150° SO
Ortszeit Untergrenze Bedeckung Gattung
total tief tief mittel hoch
Di, 16.01. 13:00 750 m 7/8 6/8 Cu - -
Di, 16.01. 7:00 1350 m 7/8 6/8 Cu - -
Di, 16.01. 1:00 2400 m 8/8 5/8 - - -
Mo, 15.01. 19:00 5400 m 6/8 6/8 - Ac -
Mo, 15.01. 13:00 450 m 7/8 6/8 Sc Ac -
Mo, 15.01. 7:00 570 m 8/8 6/8 Sc - -
Mo, 15.01. 1:00 60 m 8/8 5/8 - - -
So, 14.01. 19:00 420 m 8/8 6/8 St - -
Ortszeit Bedeckungsgrad in Achtel und Wolkenuntergrenze
Di, 16.01. 14:20 1-2(450m) 3-4(1350m) 7(1800m)
Di, 16.01. 14:00 1(600m) 4(1260m) 6(1800m)
Di, 16.01. 13:50 1-2(600m) 3-4(1260m) 7(1800m)
Di, 16.01. 13:20 1-2(750m) 3-4(1350m) 7(1800m)
Di, 16.01. 13:00 1(750m) 3(1350m) 6(1800m)
Di, 16.01. 12:50 1-2(750m) 3-4(1350m) 7(1800m)
Di, 16.01. 12:20 1-2(1500m) 5-7(1800m)
Di, 16.01. 12:00 1(1500m) 4(2100m) 5(3000m)
Di, 16.01. 11:20 1-2(1500m) 5-7(2100m)
Di, 16.01. 11:00 1(1500m) 6(2100m)
Ortszeit Luftdruck NN (hPa) Tendenz (hPa in 3 Std.)
Di, 16.01. 13:00 1001 + 0,1
Di, 16.01. 7:00 1004 - 1,7
Di, 16.01. 1:00 1008 - 1,5
Mo, 15.01. 19:00 1014 - 3,3
Mo, 15.01. 13:00 1020 - 2,2
Mo, 15.01. 7:00 1024 - 0,3
Mo, 15.01. 1:00 1025 + 0,3
So, 14.01. 19:00 1023 + 0,7
Ortszeit Luftdruck NN (hPa) Tendenz (hPa in 3 Std.)
Di, 16.01. 14:20 999 keine Meldung
Di, 16.01. 14:00 1000 - 1,5
Di, 16.01. 13:50 999 keine Meldung
Di, 16.01. 13:20 1000 keine Meldung
Di, 16.01. 13:00 1001 + 0,1
Di, 16.01. 12:50 1000 keine Meldung
Di, 16.01. 12:20 1000 keine Meldung
Di, 16.01. 12:00 1000 - 0,8
Di, 16.01. 11:20 1001 keine Meldung
Di, 16.01. 11:00 1001 - 1,6
Ortszeit Schneehöhe (cm)
Di, 16.01. 13:00 -
Di, 16.01. 7:00 -
Di, 16.01. 1:00 -
Mo, 15.01. 19:00 -
Mo, 15.01. 13:00 -
Mo, 15.01. 7:00 -
Mo, 15.01. 1:00 -
So, 14.01. 19:00 -
Ortszeit Schneehöhe (cm)
Di, 16.01. 14:20 -
Di, 16.01. 14:00 -
Di, 16.01. 13:50 -
Di, 16.01. 13:20 -
Di, 16.01. 13:00 -
Di, 16.01. 12:50 -
Di, 16.01. 12:20 -
Di, 16.01. 12:00 -
Di, 16.01. 11:20 -
Di, 16.01. 11:00 -
Link zu dieser Seite / Seite empfehlen

Das Wetter in ...